createdAt,value
2022-10-05T00:00:28.894Z,95243.91
2022-10-05T00:02:55.986Z,95223.94
2022-10-05T00:05:33.328Z,95230.03
2022-10-05T00:08:20.426Z,95219.69
2022-10-05T00:10:47.065Z,95216.75
2022-10-05T00:13:35.414Z,95226.56
2022-10-05T00:16:10.841Z,95222.94
2022-10-05T00:18:37.950Z,95220.44
2022-10-05T00:21:27.098Z,95222.19
2022-10-05T00:23:56.272Z,95227.53
2022-10-05T00:26:27.284Z,95233.56
2022-10-05T00:28:54.611Z,95229.31
2022-10-05T00:31:23.383Z,95221.00
2022-10-05T00:33:50.171Z,95228.03
2022-10-05T00:36:17.222Z,95220.78
2022-10-05T00:38:44.322Z,95221.47
2022-10-05T00:41:26.487Z,95216.56
2022-10-05T00:44:28.674Z,95210.28
2022-10-05T00:47:13.695Z,95225.34
2022-10-05T00:49:59.101Z,95209.47
2022-10-05T00:52:47.165Z,95216.38
2022-10-05T00:55:19.621Z,95204.75
2022-10-05T00:58:11.830Z,95201.13
2022-10-05T01:01:15.099Z,95204.66
2022-10-05T01:03:48.810Z,95210.97
2022-10-05T01:06:18.437Z,95210.00
2022-10-05T01:08:56.933Z,95216.13
2022-10-05T01:11:26.571Z,95203.19
2022-10-05T01:14:23.189Z,95205.09
2022-10-05T01:16:59.783Z,95199.63
2022-10-05T01:19:48.178Z,95204.84
2022-10-05T01:22:41.590Z,95207.00
2022-10-05T01:25:21.468Z,95201.78
2022-10-05T01:27:52.499Z,95201.19
2022-10-05T01:30:20.820Z,95187.34
2022-10-05T01:32:56.144Z,95200.59
2022-10-05T01:35:49.210Z,95200.59
2022-10-05T01:38:39.100Z,95193.16
2022-10-05T01:41:36.716Z,95197.44
2022-10-05T01:44:16.401Z,95194.25
2022-10-05T01:47:05.207Z,95185.63
2022-10-05T01:49:40.779Z,95199.47
2022-10-05T01:52:11.316Z,95192.34
2022-10-05T01:55:15.310Z,95184.03
2022-10-05T01:58:08.344Z,95183.00
2022-10-05T02:01:04.295Z,95177.91
2022-10-05T02:03:36.824Z,95191.16
2022-10-05T02:06:13.727Z,95184.81
2022-10-05T02:08:51.617Z,95188.56
2022-10-05T02:11:18.693Z,95174.09
2022-10-05T02:13:53.495Z,95192.84
2022-10-05T02:16:30.465Z,95188.81
2022-10-05T02:19:02.351Z,95163.13
2022-10-05T02:21:31.114Z,95177.78
2022-10-05T02:24:02.321Z,95163.94
2022-10-05T02:26:29.703Z,95178.00
2022-10-05T02:28:59.286Z,95167.81
2022-10-05T02:31:29.531Z,95169.72
2022-10-05T02:34:28.209Z,95161.19
2022-10-05T02:37:22.526Z,95161.44
2022-10-05T02:40:10.130Z,95171.06
2022-10-05T02:42:58.117Z,95158.28
2022-10-05T02:45:29.969Z,95153.91
2022-10-05T02:48:44.131Z,95154.44
2022-10-05T02:51:24.417Z,95138.56
2022-10-05T02:53:56.856Z,95158.00
2022-10-05T02:56:29.932Z,95149.91
2022-10-05T02:59:15.149Z,95151.94
2022-10-05T03:01:58.675Z,95143.09
2022-10-05T03:05:17.565Z,95152.22
2022-10-05T03:07:46.862Z,95155.53
2022-10-05T03:10:16.612Z,95136.19
2022-10-05T03:13:02.838Z,95148.22
2022-10-05T03:15:43.974Z,95141.16
2022-10-05T03:18:35.086Z,95136.66
2022-10-05T03:21:23.774Z,95134.72
2022-10-05T03:23:57.513Z,95147.72
2022-10-05T03:26:53.326Z,95140.16
2022-10-05T03:29:37.873Z,95137.66
2022-10-05T03:32:13.444Z,95133.47
2022-10-05T03:35:14.411Z,95125.63
2022-10-05T03:37:50.112Z,95130.28
2022-10-05T03:40:27.352Z,95129.72
2022-10-05T03:43:21.914Z,95133.22
2022-10-05T03:46:03.567Z,95118.50
2022-10-05T03:48:57.566Z,95121.06
2022-10-05T03:51:30.802Z,95129.94
2022-10-05T03:54:03.477Z,95110.63
2022-10-05T03:56:32.650Z,95132.91
2022-10-05T03:59:13.758Z,95146.41
2022-10-05T04:01:47.909Z,95154.06
2022-10-05T04:04:46.265Z,95155.25
2022-10-05T04:07:40.516Z,95151.09
2022-10-05T04:10:17.641Z,95166.63
2022-10-05T04:12:50.467Z,95157.66
2022-10-05T04:15:29.084Z,95164.84
2022-10-05T04:18:03.210Z,95166.41
2022-10-05T04:20:36.678Z,95152.66
2022-10-05T04:23:36.436Z,95151.94
2022-10-05T04:26:07.811Z,95140.03
2022-10-05T04:28:43.742Z,95152.06
2022-10-05T04:31:15.567Z,95149.47
2022-10-05T04:33:44.649Z,95139.28
2022-10-05T04:36:21.579Z,95139.06
2022-10-05T04:38:58.424Z,95143.97
2022-10-05T04:42:04.597Z,95145.31
2022-10-05T04:44:49.968Z,95143.84
2022-10-05T04:47:26.964Z,95127.81
2022-10-05T04:50:17.884Z,95131.19
2022-10-05T04:53:00.697Z,95112.81
2022-10-05T04:55:49.145Z,95123.88
2022-10-05T04:59:00.364Z,95132.84
2022-10-05T05:01:54.416Z,95138.03
2022-10-05T05:04:20.953Z,95131.41
2022-10-05T05:07:21.346Z,95125.91
2022-10-05T05:10:20.064Z,95124.13
2022-10-05T05:13:08.593Z,95124.75
2022-10-05T05:15:44.428Z,95128.94
2022-10-05T05:18:23.058Z,95124.22
2022-10-05T05:21:17.113Z,95129.00
2022-10-05T05:24:30.360Z,95130.53
2022-10-05T05:26:59.890Z,95132.22
2022-10-05T05:29:46.226Z,95113.72
2022-10-05T05:32:24.817Z,95134.53
2022-10-05T05:35:32.113Z,95133.03
2022-10-05T05:38:14.077Z,95127.16
2022-10-05T05:41:04.044Z,95122.22
2022-10-05T05:43:33.374Z,95141.97
2022-10-05T05:46:01.514Z,95134.28
2022-10-05T05:48:44.260Z,95144.78
2022-10-05T05:51:16.038Z,95154.13
2022-10-05T05:53:46.113Z,95164.06
2022-10-05T05:56:35.000Z,95154.63
2022-10-05T05:59:11.185Z,95140.56
2022-10-05T06:01:45.303Z,95168.66
2022-10-05T06:04:22.543Z,95167.75
2022-10-05T06:06:52.212Z,95159.06
2022-10-05T06:09:35.442Z,95179.44
2022-10-05T06:12:22.890Z,95176.47
2022-10-05T06:14:54.609Z,95163.66
2022-10-05T06:17:48.911Z,95185.22
2022-10-05T06:20:33.135Z,95182.34
2022-10-05T06:23:02.910Z,95184.94
2022-10-05T06:25:55.649Z,95183.81
2022-10-05T06:28:24.952Z,95191.41
2022-10-05T06:31:13.043Z,95192.75
2022-10-05T06:34:22.383Z,95192.75
2022-10-05T06:36:51.597Z,95194.84
2022-10-05T06:39:31.016Z,95201.75
2022-10-05T06:41:57.614Z,95193.75
2022-10-05T06:44:43.001Z,95203.91
2022-10-05T06:47:27.394Z,95203.19
2022-10-05T06:50:35.433Z,95199.00
2022-10-05T06:53:20.145Z,95206.38
2022-10-05T06:56:07.793Z,95201.25
2022-10-05T06:58:41.736Z,95204.41
2022-10-05T07:01:16.103Z,95176.97
2022-10-05T07:04:20.361Z,95207.41
2022-10-05T07:06:51.365Z,95208.34
2022-10-05T07:09:39.722Z,95214.00
2022-10-05T07:12:18.607Z,95209.41
2022-10-05T07:14:47.918Z,95212.41
2022-10-05T07:17:23.195Z,95212.72
2022-10-05T07:20:09.215Z,95207.22
2022-10-05T07:22:47.841Z,95205.63
2022-10-05T07:25:20.159Z,95214.78
2022-10-05T07:28:08.461Z,95204.88
2022-10-05T07:30:43.837Z,95217.84
2022-10-05T07:33:29.337Z,95213.72
2022-10-05T07:36:18.879Z,95211.69
2022-10-05T07:38:53.252Z,95197.75
2022-10-05T07:41:33.668Z,95223.53
2022-10-05T07:44:22.701Z,95223.97
2022-10-05T07:46:49.746Z,95223.09
2022-10-05T07:49:36.505Z,95207.09
2022-10-05T07:52:10.338Z,95220.91
2022-10-05T07:54:48.859Z,95231.03
2022-10-05T07:57:15.409Z,95234.09
2022-10-05T07:59:45.731Z,95224.47
2022-10-05T08:02:19.916Z,95227.63
2022-10-05T08:05:18.500Z,95227.41
2022-10-05T08:07:46.073Z,95212.22
2022-10-05T08:10:31.835Z,95214.34
2022-10-05T08:13:12.145Z,95215.28
2022-10-05T08:15:43.307Z,95217.47
2022-10-05T08:18:37.163Z,95227.38
2022-10-05T08:21:06.297Z,95215.81
2022-10-05T08:23:41.979Z,95215.16
2022-10-05T08:26:39.359Z,95218.72
2022-10-05T08:29:30.861Z,95213.19
2022-10-05T08:32:01.569Z,95212.91
2022-10-05T08:34:35.090Z,95208.88
2022-10-05T08:37:07.948Z,95207.59
2022-10-05T08:39:42.725Z,95211.75
2022-10-05T08:42:12.168Z,95216.38
2022-10-05T08:45:07.781Z,95214.84
2022-10-05T08:47:53.126Z,95214.94
2022-10-05T08:50:49.974Z,95214.69
2022-10-05T08:53:23.755Z,95202.59
2022-10-05T08:56:01.743Z,95219.16
2022-10-05T08:58:34.251Z,95214.53
2022-10-05T09:01:23.164Z,95215.84
2022-10-05T09:04:37.317Z,95217.81
2022-10-05T09:07:41.230Z,95207.16
2022-10-05T09:10:32.190Z,95219.94
2022-10-05T09:13:24.790Z,95217.97
2022-10-05T09:16:16.128Z,95221.19
2022-10-05T09:18:52.889Z,95218.50
2022-10-05T09:21:30.455Z,95207.25
2022-10-05T09:24:13.251Z,95221.41
2022-10-05T09:26:45.182Z,95218.19
2022-10-05T09:29:29.628Z,95214.00
2022-10-05T09:31:59.050Z,95208.97
2022-10-05T09:34:28.362Z,95199.97
2022-10-05T09:37:33.737Z,95200.69
2022-10-05T09:40:25.599Z,95188.28
2022-10-05T09:43:22.810Z,95176.63
2022-10-05T09:46:35.429Z,95179.03
2022-10-05T09:49:44.927Z,95175.25
2022-10-05T09:52:39.452Z,95187.78
2022-10-05T09:55:34.095Z,95179.28
2022-10-05T09:58:38.260Z,95184.09
2022-10-05T10:01:34.234Z,95181.47
2022-10-05T10:04:28.854Z,95167.84
2022-10-05T10:07:33.036Z,95174.84
2022-10-05T10:10:21.164Z,95169.81
2022-10-05T10:13:35.170Z,95165.31
2022-10-05T10:16:03.983Z,95166.97
2022-10-05T10:19:08.613Z,95168.59
2022-10-05T10:21:53.613Z,95170.25
2022-10-05T10:24:51.189Z,95173.53
2022-10-05T10:27:20.648Z,95167.16
2022-10-05T10:30:05.332Z,95173.50
2022-10-05T10:33:15.625Z,95161.13
2022-10-05T10:35:51.246Z,95169.09
2022-10-05T10:38:34.145Z,95157.31
2022-10-05T10:41:09.811Z,95160.59
2022-10-05T10:43:45.501Z,95163.03
2022-10-05T10:46:27.600Z,95161.13
2022-10-05T10:49:22.109Z,95151.47
2022-10-05T10:51:54.399Z,95167.06
2022-10-05T10:54:47.984Z,95167.34
2022-10-05T10:57:25.786Z,95153.75
2022-10-05T11:00:22.381Z,95159.72
2022-10-05T11:03:08.553Z,95159.91
2022-10-05T11:05:35.150Z,95158.53
2022-10-05T11:08:12.656Z,95154.06
2022-10-05T11:11:17.928Z,95158.59
2022-10-05T11:14:05.844Z,95151.56
2022-10-05T11:16:39.777Z,95149.59
2022-10-05T11:19:20.406Z,95148.09
2022-10-05T11:22:12.574Z,95152.25
2022-10-05T11:24:54.799Z,95146.53
2022-10-05T11:27:50.421Z,95134.06
2022-10-05T11:30:50.442Z,95143.34
2022-10-05T11:33:43.987Z,95140.28
2022-10-05T11:36:29.110Z,95139.84
2022-10-05T11:39:02.249Z,95136.72
2022-10-05T11:41:48.169Z,95134.09
2022-10-05T11:44:39.665Z,95131.69
2022-10-05T11:47:21.418Z,95133.91
2022-10-05T11:50:12.708Z,95135.81
2022-10-05T11:52:42.009Z,95122.09
2022-10-05T11:55:20.438Z,95119.66
2022-10-05T11:57:52.927Z,95128.84
2022-10-05T12:00:25.590Z,95118.97
2022-10-05T12:03:29.894Z,95123.50
2022-10-05T12:06:17.516Z,95121.31
2022-10-05T12:08:56.702Z,95117.34
2022-10-05T12:11:57.699Z,95121.63
2022-10-05T12:14:33.584Z,95116.75
2022-10-05T12:17:03.222Z,95118.53
2022-10-05T12:19:36.745Z,95103.22
2022-10-05T12:22:19.226Z,95105.59
2022-10-05T12:25:17.137Z,95114.09
2022-10-05T12:27:46.412Z,95117.44
2022-10-05T12:30:54.914Z,95117.00
2022-10-05T12:33:26.197Z,95099.03
2022-10-05T12:36:00.253Z,95106.16
2022-10-05T12:38:30.649Z,95100.19
2022-10-05T12:41:28.743Z,95102.25
2022-10-05T12:44:03.277Z,95106.81
2022-10-05T12:46:34.653Z,95084.47
2022-10-05T12:49:15.188Z,95093.66
2022-10-05T12:51:44.542Z,95100.56
2022-10-05T12:54:30.778Z,95096.59
2022-10-05T12:57:01.244Z,95091.94
2022-10-05T12:59:40.468Z,95094.59
2022-10-05T13:02:45.001Z,95097.88
2022-10-05T13:05:11.598Z,95097.69
2022-10-05T13:07:41.105Z,95097.28
2022-10-05T13:10:28.322Z,95090.38
2022-10-05T13:13:02.291Z,95083.53
2022-10-05T13:15:37.939Z,95089.88
2022-10-05T13:18:11.918Z,95093.69
2022-10-05T13:20:48.180Z,95087.47
2022-10-05T13:23:24.946Z,95090.72
2022-10-05T13:26:15.957Z,95077.81
2022-10-05T13:28:57.486Z,95079.38
2022-10-05T13:31:40.656Z,95081.13
2022-10-05T13:34:32.100Z,95078.16
2022-10-05T13:37:01.586Z,95078.28
2022-10-05T13:39:34.942Z,95078.41
2022-10-05T13:42:18.713Z,95071.19
2022-10-05T13:44:54.194Z,95073.66
2022-10-05T13:47:41.294Z,95072.25
2022-10-05T13:50:21.655Z,95078.06
2022-10-05T13:53:10.217Z,95081.78
2022-10-05T13:55:39.861Z,95076.13
2022-10-05T13:58:32.488Z,95078.91
2022-10-05T14:01:02.345Z,95064.84
2022-10-05T14:03:35.165Z,95077.41
2022-10-05T14:06:11.358Z,95072.97
2022-10-05T14:08:52.153Z,95071.56
2022-10-05T14:11:31.842Z,95086.69
2022-10-05T14:14:14.677Z,95075.78
2022-10-05T14:16:58.819Z,95069.13
2022-10-05T14:19:28.056Z,95073.16
2022-10-05T14:22:01.698Z,95066.63
2022-10-05T14:24:49.960Z,95074.34
2022-10-05T14:27:21.226Z,95069.22
2022-10-05T14:30:00.597Z,95059.78
2022-10-05T14:32:32.635Z,95059.28
2022-10-05T14:35:13.366Z,95068.75
2022-10-05T14:37:45.101Z,95065.09
2022-10-05T14:40:28.365Z,95067.22
2022-10-05T14:42:55.296Z,95065.88
2022-10-05T14:45:26.848Z,95059.66
2022-10-05T14:48:02.550Z,95066.91
2022-10-05T14:50:31.450Z,95067.16
2022-10-05T14:53:10.309Z,95070.25
2022-10-05T14:56:17.438Z,95066.28
2022-10-05T14:59:13.680Z,95066.56
2022-10-05T15:01:46.931Z,95069.13
2022-10-05T15:04:34.514Z,95063.91
2022-10-05T15:07:19.871Z,95069.38
2022-10-05T15:10:07.389Z,95070.88
2022-10-05T15:12:44.129Z,95078.66
2022-10-05T15:16:05.854Z,95056.56
2022-10-05T15:18:49.200Z,95066.25
2022-10-05T15:21:21.693Z,95070.53
2022-10-05T15:23:57.754Z,95078.28
2022-10-05T15:26:30.166Z,95071.88
2022-10-05T15:29:14.833Z,95068.44
2022-10-05T15:32:14.876Z,95064.16
2022-10-05T15:34:49.943Z,95069.88
2022-10-05T15:37:22.173Z,95071.84
2022-10-05T15:39:48.741Z,95071.84
2022-10-05T15:42:22.891Z,95076.63
2022-10-05T15:44:52.330Z,95073.94
2022-10-05T15:47:35.149Z,95072.72
2022-10-05T15:50:13.722Z,95072.09
2022-10-05T15:53:12.215Z,95065.09
2022-10-05T15:56:01.225Z,95080.34
2022-10-05T15:58:46.329Z,95076.50
2022-10-05T16:01:17.639Z,95085.81
2022-10-05T16:03:56.378Z,95085.59
2022-10-05T16:07:01.841Z,95079.75
2022-10-05T16:09:49.848Z,95070.00
2022-10-05T16:12:37.933Z,95083.97
2022-10-05T16:15:08.792Z,95084.81
2022-10-05T16:18:01.325Z,95084.03
2022-10-05T16:20:46.703Z,95089.75
2022-10-05T16:23:28.046Z,95089.59
2022-10-05T16:25:54.611Z,95096.47
2022-10-05T16:28:24.240Z,95095.75
2022-10-05T16:30:59.357Z,95106.03
2022-10-05T16:33:29.366Z,95096.91
2022-10-05T16:36:07.665Z,95103.28
2022-10-05T16:38:43.097Z,95088.84
2022-10-05T16:41:36.081Z,95109.88
2022-10-05T16:44:29.040Z,95113.66
2022-10-05T16:47:04.679Z,95116.63
2022-10-05T16:49:54.994Z,95123.06
2022-10-05T16:52:23.625Z,95129.28
2022-10-05T16:54:58.027Z,95126.69
2022-10-05T16:57:26.331Z,95128.38
2022-10-05T16:59:52.992Z,95131.66
2022-10-05T17:02:41.510Z,95142.78
2022-10-05T17:05:18.800Z,95143.59
2022-10-05T17:08:19.055Z,95149.56
2022-10-05T17:10:54.269Z,95149.75
2022-10-05T17:14:02.527Z,95157.72
2022-10-05T17:16:35.639Z,95158.72
2022-10-05T17:19:26.369Z,95161.13
2022-10-05T17:22:00.801Z,95169.06
2022-10-05T17:24:54.422Z,95154.88
2022-10-05T17:27:33.461Z,95176.28
2022-10-05T17:30:46.323Z,95184.25
2022-10-05T17:33:14.319Z,95184.56
2022-10-05T17:35:50.937Z,95179.97
2022-10-05T17:38:23.641Z,95180.72
2022-10-05T17:41:14.326Z,95189.78
2022-10-05T17:43:42.044Z,95197.81
2022-10-05T17:46:09.707Z,95202.59
2022-10-05T17:48:44.157Z,95205.69
2022-10-05T17:51:47.363Z,95204.34
2022-10-05T17:54:44.618Z,95201.19
2022-10-05T17:57:11.206Z,95206.06
2022-10-05T17:59:47.061Z,95211.22
2022-10-05T18:02:15.721Z,95211.59
2022-10-05T18:04:50.923Z,95201.44
2022-10-05T18:07:23.238Z,95206.59
2022-10-05T18:09:54.236Z,95226.72
2022-10-05T18:12:42.889Z,95227.97
2022-10-05T18:15:09.463Z,95224.63
2022-10-05T18:17:47.588Z,95223.06
2022-10-05T18:20:22.959Z,95226.25
2022-10-05T18:22:51.163Z,95235.94
2022-10-05T18:25:26.285Z,95241.53
2022-10-05T18:28:16.042Z,95237.66
2022-10-05T18:30:59.153Z,95241.41
2022-10-05T18:33:34.552Z,95247.28
2022-10-05T18:36:27.504Z,95243.88
2022-10-05T18:39:06.113Z,95243.13
2022-10-05T18:42:03.251Z,95240.34
2022-10-05T18:44:30.592Z,95242.88
2022-10-05T18:47:15.693Z,95244.31
2022-10-05T18:50:14.404Z,95230.72
2022-10-05T18:53:09.010Z,95253.81
2022-10-05T18:55:39.278Z,95248.28
2022-10-05T18:58:17.943Z,95246.72
2022-10-05T19:00:59.488Z,95256.25
2022-10-05T19:03:31.893Z,95259.75
2022-10-05T19:06:13.797Z,95256.81
2022-10-05T19:08:56.850Z,95272.72
2022-10-05T19:11:37.703Z,95265.66
2022-10-05T19:14:28.988Z,95276.59
2022-10-05T19:17:24.946Z,95267.16
2022-10-05T19:20:23.769Z,95271.66
2022-10-05T19:23:12.553Z,95275.50
2022-10-05T19:26:08.204Z,95279.44
2022-10-05T19:28:38.996Z,95283.72
2022-10-05T19:31:32.541Z,95276.84
2022-10-05T19:34:19.380Z,95286.75
2022-10-05T19:37:14.131Z,95293.03
2022-10-05T19:39:54.809Z,95289.41
2022-10-05T19:42:30.336Z,95297.66
2022-10-05T19:45:09.293Z,95305.44
2022-10-05T19:47:44.702Z,95296.34
2022-10-05T19:50:29.363Z,95314.81
2022-10-05T19:53:13.477Z,95319.44
2022-10-05T19:55:45.823Z,95322.06
2022-10-05T19:58:22.549Z,95328.00
2022-10-05T20:00:53.729Z,95324.56
2022-10-05T20:03:27.317Z,95331.09
2022-10-05T20:05:55.905Z,95337.19
2022-10-05T20:08:27.051Z,95335.19
2022-10-05T20:11:13.249Z,95346.75
2022-10-05T20:13:42.374Z,95349.69
2022-10-05T20:16:34.215Z,95352.66
2022-10-05T20:19:38.949Z,95348.31
2022-10-05T20:22:27.626Z,95360.28
2022-10-05T20:24:56.991Z,95364.06
2022-10-05T20:27:42.930Z,95366.03
2022-10-05T20:30:15.067Z,95370.56
2022-10-05T20:32:42.151Z,95383.88
2022-10-05T20:35:08.922Z,95363.78
2022-10-05T20:37:36.907Z,95379.75
2022-10-05T20:40:05.256Z,95384.81
2022-10-05T20:42:31.921Z,95394.88
2022-10-05T20:44:58.921Z,95382.59
2022-10-05T20:47:26.164Z,95388.53
2022-10-05T20:49:55.646Z,95393.34
2022-10-05T20:52:23.278Z,95392.66
2022-10-05T20:54:53.874Z,95386.53
2022-10-05T20:57:24.343Z,95399.03
2022-10-05T20:59:51.577Z,95400.97
2022-10-05T21:02:20.973Z,95397.97
2022-10-05T21:04:47.940Z,95404.94
2022-10-05T21:07:19.941Z,95410.88
2022-10-05T21:09:46.965Z,95429.66
2022-10-05T21:12:14.674Z,95413.94
2022-10-05T21:14:41.337Z,95412.25
2022-10-05T21:17:08.209Z,95437.22
2022-10-05T21:19:41.311Z,95430.22
2022-10-05T21:22:08.922Z,95424.34
2022-10-05T21:24:39.824Z,95436.69
2022-10-05T21:27:07.249Z,95440.53
2022-10-05T21:29:35.443Z,95446.59
2022-10-05T21:32:02.183Z,95452.00
2022-10-05T21:34:29.093Z,95438.09
2022-10-05T21:36:56.292Z,95452.47
2022-10-05T21:39:23.755Z,95456.66
2022-10-05T21:41:50.457Z,95444.63
2022-10-05T21:44:17.073Z,95444.25
2022-10-05T21:46:43.770Z,95447.00
2022-10-05T21:49:11.127Z,95451.75
2022-10-05T21:51:38.419Z,95463.38
2022-10-05T21:54:16.926Z,95462.44
2022-10-05T21:56:47.294Z,95465.88
2022-10-05T21:59:17.133Z,95477.97
2022-10-05T22:01:44.073Z,95474.50
2022-10-05T22:04:10.737Z,95469.59
2022-10-05T22:06:37.441Z,95475.13
2022-10-05T22:09:04.569Z,95476.38
2022-10-05T22:11:31.730Z,95474.19
2022-10-05T22:14:04.307Z,95466.47
2022-10-05T22:16:35.328Z,95483.34
2022-10-05T22:19:06.649Z,95472.19
2022-10-05T22:21:38.046Z,95474.09
2022-10-05T22:24:05.065Z,95482.94
2022-10-05T22:26:32.256Z,95487.41
2022-10-05T22:28:59.006Z,95482.72
2022-10-05T22:31:25.698Z,95476.81
2022-10-05T22:33:52.344Z,95485.50
2022-10-05T22:36:19.291Z,95491.91
2022-10-05T22:38:47.690Z,95493.25
2022-10-05T22:41:16.576Z,95488.31
2022-10-05T22:43:43.179Z,95498.41
2022-10-05T22:46:11.865Z,95488.38
2022-10-05T22:48:39.437Z,95491.41
2022-10-05T22:51:06.531Z,95492.94
2022-10-05T22:53:33.670Z,95495.44
2022-10-05T22:56:18.598Z,95487.53
2022-10-05T22:58:45.493Z,95484.22
2022-10-05T23:01:14.313Z,95476.75
2022-10-05T23:03:41.406Z,95490.97
2022-10-05T23:06:13.520Z,95497.50
2022-10-05T23:08:41.062Z,95495.00
2022-10-05T23:11:13.257Z,95491.81
2022-10-05T23:13:40.488Z,95501.63
2022-10-05T23:16:17.655Z,95502.06
2022-10-05T23:18:44.883Z,95501.63
2022-10-05T23:21:11.855Z,95498.31
2022-10-05T23:23:40.097Z,95504.41
2022-10-05T23:26:08.979Z,95509.09
2022-10-05T23:28:35.666Z,95504.25
2022-10-05T23:31:05.437Z,95510.22
2022-10-05T23:33:32.462Z,95503.31
2022-10-05T23:35:59.293Z,95519.31
2022-10-05T23:38:26.241Z,95517.25
2022-10-05T23:40:53.298Z,95507.16
2022-10-05T23:43:20.034Z,95518.78
2022-10-05T23:45:47.204Z,95523.75
2022-10-05T23:48:14.282Z,95514.34
2022-10-05T23:50:40.932Z,95516.53
2022-10-05T23:53:07.553Z,95521.94
2022-10-05T23:55:34.190Z,95527.03
2022-10-05T23:58:00.817Z,95524.94
